Terminal Aerodrome Forecast
Issued by NWS Duluth, MN

Home | Current Version | Previous Version | Text Only | Print | Product List | Glossary On
Versions: 1 2 3 4 5 6 7 8 9 10 11 12 13 14 15 16 17 18
258
FTUS43 KDLH 190537
TAFINL
TAF
KINL 190537Z 1906/2006 29004KT 6SM BR SCT150
      TEMPO 1907/1909 4SM BR
     FM190900 VRB03KT 6SM BR FEW010 BKN110
      TEMPO 1910/1914 3SM BR SCT007 BKN100
     FM191600 10005KT P6SM SCT007 BKN200
     FM200000 10009KT P6SM BKN140=

USA.gov is the U.S. government's official web portal to all federal, state and local government web resources and services.